HLE81 EGNE-EGNE
Flight info
| Callsign | HLE81 |
|---|---|
| Flight time | N/A |
| Altitude | 2000 |
| Route | VFR |
| Aircraft | A169/L-V/N |
Departure
| Time | 2026-04-17 13:20 |
|---|---|
| Airport | Retford Gamston Airport (EGNE) |
Arrival
| Time | N/A |
|---|---|
| Airport | Retford Gamston Airport (EGNE) |
| Time | Latitude | Longitude | Altitude | Speed | Heading |
|---|---|---|---|---|---|
| 2026-04-17 13:17 | 53.28142 | -0.94940 | 89 ft | 0 kts | 117° |
| 2026-04-17 13:19 | 53.28142 | -0.94939 | 89 ft | 0 kts | 119° |
| 2026-04-17 13:19 | 53.28142 | -0.94935 | 94 ft | 2 kts | 109° |
| 2026-04-17 13:19 | 53.28163 | -0.94947 | 137 ft | 19 kts | 299° |
| 2026-04-17 13:19 | 53.28326 | -0.95422 | 410 ft | 77 kts | 287° |
| 2026-04-17 13:20 | 53.28661 | -0.96343 | 772 ft | 104 kts | 296° |
| 2026-04-17 13:20 | 53.29066 | -0.97338 | 1144 ft | 103 kts | 292° |
| 2026-04-17 13:20 | 53.29465 | -0.98342 | 1389 ft | 104 kts | 290° |
| 2026-04-17 13:20 | 53.29646 | -0.98807 | 1472 ft | 108 kts | 291° |
| 2026-04-17 13:21 | 53.30095 | -0.99969 | 1433 ft | 132 kts | 292° |
| 2026-04-17 13:21 | 53.30623 | -1.01290 | 1518 ft | 138 kts | 292° |
| 2026-04-17 13:21 | 53.31163 | -1.02611 | 1551 ft | 138 kts | 291° |
| 2026-04-17 13:21 | 53.31699 | -1.03937 | 1531 ft | 138 kts | 291° |
| 2026-04-17 13:22 | 53.32240 | -1.05273 | 1516 ft | 138 kts | 291° |
| 2026-04-17 13:22 | 53.32779 | -1.06604 | 1427 ft | 144 kts | 292° |
| 2026-04-17 13:22 | 53.33360 | -1.08045 | 1443 ft | 152 kts | 295° |
| 2026-04-17 13:22 | 53.33972 | -1.09507 | 1507 ft | 153 kts | 294° |
| 2026-04-17 13:23 | 53.34580 | -1.10977 | 1505 ft | 153 kts | 293° |
| 2026-04-17 13:23 | 53.35189 | -1.12458 | 1493 ft | 154 kts | 293° |
| 2026-04-17 13:23 | 53.35789 | -1.13922 | 1489 ft | 153 kts | 294° |
| 2026-04-17 13:23 | 53.36392 | -1.15390 | 1489 ft | 152 kts | 293° |
| 2026-04-17 13:24 | 53.36993 | -1.16855 | 1481 ft | 153 kts | 294° |
| 2026-04-17 13:24 | 53.37600 | -1.18337 | 1488 ft | 153 kts | 294° |
| 2026-04-17 13:24 | 53.38203 | -1.19808 | 1505 ft | 153 kts | 294° |
| 2026-04-17 13:24 | 53.38784 | -1.21223 | 1506 ft | 153 kts | 294° |
| 2026-04-17 13:25 | 53.39386 | -1.22693 | 1493 ft | 152 kts | 294° |
| 2026-04-17 13:25 | 53.39985 | -1.24158 | 1509 ft | 153 kts | 294° |
| 2026-04-17 13:25 | 53.40591 | -1.25639 | 1500 ft | 153 kts | 294° |
| 2026-04-17 13:25 | 53.41192 | -1.27110 | 1495 ft | 153 kts | 294° |
| 2026-04-17 13:26 | 53.41792 | -1.28583 | 1492 ft | 154 kts | 294° |
| 2026-04-17 13:26 | 53.42402 | -1.30079 | 1482 ft | 154 kts | 294° |
| 2026-04-17 13:26 | 53.43007 | -1.31556 | 1492 ft | 154 kts | 294° |
| 2026-04-17 13:26 | 53.43607 | -1.33029 | 1496 ft | 153 kts | 294° |
| 2026-04-17 13:27 | 53.44213 | -1.34514 | 1487 ft | 153 kts | 294° |
| 2026-04-17 13:27 | 53.44814 | -1.35988 | 1488 ft | 153 kts | 294° |
| 2026-04-17 13:27 | 53.45408 | -1.37451 | 1476 ft | 153 kts | 294° |
| 2026-04-17 13:27 | 53.46014 | -1.38936 | 1472 ft | 154 kts | 294° |
| 2026-04-17 13:28 | 53.46616 | -1.40420 | 1486 ft | 153 kts | 295° |
| 2026-04-17 13:28 | 53.47221 | -1.41900 | 1513 ft | 152 kts | 293° |
| 2026-04-17 13:28 | 53.47813 | -1.43363 | 1488 ft | 153 kts | 294° |
| 2026-04-17 13:28 | 53.48398 | -1.44811 | 1474 ft | 154 kts | 294° |
| 2026-04-17 13:29 | 53.48997 | -1.46285 | 1481 ft | 154 kts | 294° |
| 2026-04-17 13:29 | 53.49603 | -1.47778 | 1484 ft | 154 kts | 294° |
| 2026-04-17 13:29 | 53.50204 | -1.49263 | 1489 ft | 153 kts | 294° |
| 2026-04-17 13:29 | 53.50807 | -1.50751 | 1494 ft | 153 kts | 294° |
| 2026-04-17 13:30 | 53.51407 | -1.52236 | 1502 ft | 152 kts | 294° |
| 2026-04-17 13:30 | 53.51943 | -1.53511 | 1552 ft | 119 kts | 287° |
| 2026-04-17 13:30 | 53.52364 | -1.54578 | 1419 ft | 104 kts | 286° |
| 2026-04-17 13:30 | 53.52753 | -1.55583 | 1387 ft | 102 kts | 289° |
| 2026-04-17 13:31 | 53.53134 | -1.56585 | 1213 ft | 102 kts | 285° |
| 2026-04-17 13:31 | 53.53642 | -1.57069 | 1041 ft | 73 kts | 61° |
| 2026-04-17 13:31 | 53.54051 | -1.56671 | 666 ft | 51 kts | 16° |
| 2026-04-17 13:31 | 53.54263 | -1.56584 | 771 ft | 24 kts | 221° |
| 2026-04-17 13:32 | 53.54206 | -1.56519 | 1038 ft | 18 kts | 189° |
| 2026-04-17 13:32 | 53.54187 | -1.56525 | 1046 ft | 20 kts | 183° |
| 2026-04-17 13:32 | 53.54170 | -1.56578 | 423 ft | 15 kts | 223° |
| 2026-04-17 13:32 | 53.54219 | -1.56587 | 609 ft | 29 kts | 351° |
| 2026-04-17 13:33 | 53.54273 | -1.56529 | 945 ft | 16 kts | 159° |
| 2026-04-17 13:33 | 53.54322 | -1.56475 | 705 ft | 14 kts | 195° |
| 2026-04-17 13:33 | 53.54287 | -1.56511 | 448 ft | 5 kts | 200° |
| 2026-04-17 13:33 | 53.54265 | -1.56575 | 359 ft | 2 kts | 196° |
| 2026-04-17 13:34 | 53.54265 | -1.56577 | 358 ft | 0 kts | 194° |
| 2026-04-17 13:35 | 53.54267 | -1.56578 | 373 ft | 3 kts | 104° |
| 2026-04-17 13:35 | 53.54290 | -1.56634 | 594 ft | 16 kts | 110° |
| 2026-04-17 13:35 | 53.54278 | -1.56355 | 872 ft | 73 kts | 91° |
| 2026-04-17 13:35 | 53.54548 | -1.55209 | 1174 ft | 121 kts | 75° |
| 2026-04-17 13:36 | 53.55074 | -1.54092 | 1541 ft | 123 kts | 36° |
| 2026-04-17 13:36 | 53.55864 | -1.53738 | 1502 ft | 116 kts | 346° |
| 2026-04-17 13:36 | 53.56706 | -1.54139 | 1345 ft | 148 kts | 341° |
| 2026-04-17 13:36 | 53.57765 | -1.54636 | 1474 ft | 164 kts | 339° |
| 2026-04-17 13:37 | 53.58889 | -1.55149 | 1520 ft | 168 kts | 339° |
| 2026-04-17 13:37 | 53.60016 | -1.55659 | 1529 ft | 169 kts | 338° |
| 2026-04-17 13:37 | 53.61163 | -1.56174 | 1515 ft | 170 kts | 339° |
| 2026-04-17 13:37 | 53.62298 | -1.56701 | 1507 ft | 168 kts | 336° |
| 2026-04-17 13:38 | 53.63427 | -1.57277 | 1484 ft | 168 kts | 336° |
| 2026-04-17 13:38 | 53.64529 | -1.57874 | 1479 ft | 166 kts | 332° |
| 2026-04-17 13:38 | 53.65609 | -1.58583 | 1467 ft | 166 kts | 332° |
| 2026-04-17 13:38 | 53.66685 | -1.59297 | 1470 ft | 167 kts | 332° |
| 2026-04-17 13:39 | 53.67777 | -1.60021 | 1482 ft | 167 kts | 332° |
| 2026-04-17 13:39 | 53.68855 | -1.60737 | 1482 ft | 167 kts | 331° |
| 2026-04-17 13:39 | 53.69938 | -1.61458 | 1479 ft | 167 kts | 332° |
| 2026-04-17 13:39 | 53.71050 | -1.62095 | 1470 ft | 169 kts | 336° |
| 2026-04-17 13:40 | 53.72172 | -1.62691 | 1472 ft | 169 kts | 336° |
| 2026-04-17 13:40 | 53.73293 | -1.63283 | 1478 ft | 170 kts | 336° |
| 2026-04-17 13:40 | 53.74424 | -1.63881 | 1488 ft | 170 kts | 336° |
| 2026-04-17 13:40 | 53.75554 | -1.64479 | 1481 ft | 169 kts | 336° |
| 2026-04-17 13:41 | 53.76684 | -1.65058 | 1481 ft | 168 kts | 336° |
| 2026-04-17 13:41 | 53.77814 | -1.65608 | 1490 ft | 167 kts | 337° |
| 2026-04-17 13:41 | 53.78936 | -1.66155 | 1484 ft | 166 kts | 337° |
| 2026-04-17 13:41 | 53.80061 | -1.66707 | 1458 ft | 167 kts | 338° |
| 2026-04-17 13:42 | 53.81150 | -1.67238 | 1461 ft | 167 kts | 337° |
| 2026-04-17 13:42 | 53.82265 | -1.67780 | 1468 ft | 166 kts | 338° |
| 2026-04-17 13:42 | 53.83367 | -1.68314 | 1471 ft | 166 kts | 337° |
| 2026-04-17 13:42 | 53.84489 | -1.68862 | 1487 ft | 166 kts | 338° |
| 2026-04-17 13:43 | 53.85607 | -1.69406 | 1486 ft | 166 kts | 337° |
| 2026-04-17 13:43 | 53.86716 | -1.69951 | 1469 ft | 166 kts | 337° |
| 2026-04-17 13:43 | 53.87832 | -1.70481 | 1469 ft | 167 kts | 338° |
| 2026-04-17 13:43 | 53.88942 | -1.70978 | 1469 ft | 167 kts | 338° |
| 2026-04-17 13:44 | 53.90074 | -1.71484 | 1438 ft | 168 kts | 338° |
| 2026-04-17 13:44 | 53.91202 | -1.71983 | 1474 ft | 168 kts | 339° |
| 2026-04-17 13:44 | 53.92341 | -1.72488 | 1491 ft | 169 kts | 338° |
| 2026-04-17 13:44 | 53.93488 | -1.72997 | 1508 ft | 169 kts | 338° |
| 2026-04-17 13:45 | 53.94622 | -1.73505 | 1502 ft | 169 kts | 337° |
| 2026-04-17 13:45 | 53.95753 | -1.74012 | 1480 ft | 168 kts | 337° |
| 2026-04-17 13:45 | 53.96876 | -1.74517 | 1447 ft | 168 kts | 338° |
| 2026-04-17 13:45 | 53.98002 | -1.75021 | 1437 ft | 168 kts | 338° |
| 2026-04-17 13:46 | 53.99142 | -1.75531 | 1454 ft | 167 kts | 339° |
| 2026-04-17 13:46 | 54.00271 | -1.76034 | 1448 ft | 169 kts | 339° |
| 2026-04-17 13:46 | 54.01396 | -1.76539 | 1448 ft | 169 kts | 339° |
| 2026-04-17 13:46 | 54.02548 | -1.77053 | 1471 ft | 169 kts | 339° |
| 2026-04-17 13:47 | 54.03680 | -1.77559 | 1467 ft | 169 kts | 338° |
| 2026-04-17 13:47 | 54.04814 | -1.78067 | 1474 ft | 168 kts | 338° |
| 2026-04-17 13:47 | 54.05937 | -1.78573 | 1468 ft | 168 kts | 338° |
| 2026-04-17 13:47 | 54.07063 | -1.79080 | 1438 ft | 168 kts | 339° |
| 2026-04-17 13:48 | 54.08190 | -1.79585 | 1448 ft | 167 kts | 338° |
| 2026-04-17 13:48 | 54.09324 | -1.80094 | 1432 ft | 167 kts | 339° |
| 2026-04-17 13:48 | 54.10434 | -1.80591 | 1469 ft | 166 kts | 338° |
| 2026-04-17 13:48 | 54.11526 | -1.81083 | 1454 ft | 165 kts | 339° |
| 2026-04-17 13:49 | 54.12608 | -1.81571 | 1437 ft | 165 kts | 339° |
| 2026-04-17 13:49 | 54.13736 | -1.82078 | 1440 ft | 166 kts | 339° |
| 2026-04-17 13:49 | 54.14845 | -1.82571 | 1496 ft | 166 kts | 338° |
| 2026-04-17 13:49 | 54.15971 | -1.83076 | 1497 ft | 166 kts | 337° |
| 2026-04-17 13:50 | 54.17083 | -1.83584 | 1447 ft | 167 kts | 336° |
| 2026-04-17 13:50 | 54.18197 | -1.84090 | 1492 ft | 167 kts | 336° |
| 2026-04-17 13:50 | 54.19335 | -1.84608 | 1479 ft | 167 kts | 337° |
| 2026-04-17 13:50 | 54.19530 | -1.84698 | 1480 ft | 0 kts | 230° |
| 2026-04-17 13:51 | 54.19530 | -1.84697 | 1480 ft | 0 kts | 224° |
| 2026-04-17 13:52 | 54.19529 | -1.84697 | 1481 ft | 0 kts | 219° |